sensor_id;sensor_type;location;lat;lon;timestamp;P1;durP1;ratioP1;P2;durP2;ratioP2
51866;SDS011;52862;52.504;13.480;2023-04-01T00:01:38;8.60;;;3.17;;
51866;SDS011;52862;52.504;13.480;2023-04-01T00:04:05;6.80;;;3.13;;
51866;SDS011;52862;52.504;13.480;2023-04-01T00:06:32;7.30;;;3.67;;
51866;SDS011;52862;52.504;13.480;2023-04-01T00:08:59;8.33;;;3.90;;
51866;SDS011;52862;52.504;13.480;2023-04-01T00:11:26;10.20;;;3.43;;
51866;SDS011;52862;52.504;13.480;2023-04-01T00:13:53;7.73;;;4.07;;
51866;SDS011;52862;52.504;13.480;2023-04-01T00:16:20;9.07;;;3.37;;
51866;SDS011;52862;52.504;13.480;2023-04-01T00:18:48;11.23;;;4.13;;
51866;SDS011;52862;52.504;13.480;2023-04-01T00:21:16;11.60;;;4.67;;
51866;SDS011;52862;52.504;13.480;2023-04-01T00:23:43;15.70;;;4.37;;
51866;SDS011;52862;52.504;13.480;2023-04-01T00:26:11;13.27;;;4.13;;
51866;SDS011;52862;52.504;13.480;2023-04-01T00:28:39;10.10;;;4.13;;
51866;SDS011;52862;52.504;13.480;2023-04-01T00:31:07;12.97;;;4.80;;
51866;SDS011;52862;52.504;13.480;2023-04-01T00:33:35;11.03;;;3.60;;
51866;SDS011;52862;52.504;13.480;2023-04-01T00:36:06;11.33;;;4.03;;
51866;SDS011;52862;52.504;13.480;2023-04-01T00:38:34;11.73;;;4.07;;
51866;SDS011;52862;52.504;13.480;2023-04-01T00:41:01;11.07;;;3.83;;
51866;SDS011;52862;52.504;13.480;2023-04-01T00:43:29;12.70;;;3.90;;
51866;SDS011;52862;52.504;13.480;2023-04-01T00:45:55;10.87;;;3.87;;
51866;SDS011;52862;52.504;13.480;2023-04-01T00:48:23;7.10;;;3.83;;
51866;SDS011;52862;52.504;13.480;2023-04-01T00:50:54;10.87;;;3.97;;
51866;SDS011;52862;52.504;13.480;2023-04-01T00:53:23;9.73;;;4.30;;
51866;SDS011;52862;52.504;13.480;2023-04-01T00:55:51;11.97;;;4.40;;
51866;SDS011;52862;52.504;13.480;2023-04-01T00:58:23;11.83;;;4.33;;
51866;SDS011;52862;52.504;13.480;2023-04-01T01:00:53;8.77;;;4.20;;
51866;SDS011;52862;52.504;13.480;2023-04-01T01:03:22;7.77;;;4.17;;
51866;SDS011;52862;52.504;13.480;2023-04-01T01:05:53;10.27;;;3.97;;
51866;SDS011;52862;52.504;13.480;2023-04-01T01:08:40;9.93;;;4.07;;
51866;SDS011;52862;52.504;13.480;2023-04-01T01:11:25;12.97;;;4.30;;
51866;SDS011;52862;52.504;13.480;2023-04-01T01:14:10;11.87;;;3.30;;
51866;SDS011;52862;52.504;13.480;2023-04-01T01:16:45;12.13;;;3.87;;
51866;SDS011;52862;52.504;13.480;2023-04-01T01:19:23;8.17;;;3.70;;
51866;SDS011;52862;52.504;13.480;2023-04-01T01:22:07;10.83;;;3.90;;
51866;SDS011;52862;52.504;13.480;2023-04-01T01:24:50;12.70;;;3.97;;
51866;SDS011;52862;52.504;13.480;2023-04-01T01:27:26;12.07;;;4.03;;
51866;SDS011;52862;52.504;13.480;2023-04-01T01:30:00;9.43;;;3.53;;
51866;SDS011;52862;52.504;13.480;2023-04-01T01:33:01;10.50;;;4.40;;
51866;SDS011;52862;52.504;13.480;2023-04-01T01:35:40;14.80;;;3.40;;
51866;SDS011;52862;52.504;13.480;2023-04-01T01:38:13;12.63;;;3.73;;
51866;SDS011;52862;52.504;13.480;2023-04-01T01:40:42;11.53;;;4.10;;
51866;SDS011;52862;52.504;13.480;2023-04-01T01:43:12;11.80;;;4.30;;
51866;SDS011;52862;52.504;13.480;2023-04-01T01:45:45;23.83;;;4.10;;
51866;SDS011;52862;52.504;13.480;2023-04-01T01:48:14;13.13;;;4.00;;
51866;SDS011;52862;52.504;13.480;2023-04-01T01:50:43;9.87;;;3.60;;
51866;SDS011;52862;52.504;13.480;2023-04-01T01:53:12;10.10;;;3.87;;
51866;SDS011;52862;52.504;13.480;2023-04-01T01:55:39;15.13;;;4.57;;
51866;SDS011;52862;52.504;13.480;2023-04-01T01:58:09;11.70;;;3.90;;
51866;SDS011;52862;52.504;13.480;2023-04-01T02:00:39;8.67;;;3.87;;
51866;SDS011;52862;52.504;13.480;2023-04-01T02:03:08;11.97;;;4.13;;
51866;SDS011;52862;52.504;13.480;2023-04-01T02:05:36;8.60;;;3.67;;
51866;SDS011;52862;52.504;13.480;2023-04-01T02:08:05;13.37;;;4.57;;
51866;SDS011;52862;52.504;13.480;2023-04-01T02:10:35;11.30;;;3.97;;
51866;SDS011;52862;52.504;13.480;2023-04-01T02:13:07;9.87;;;3.93;;
51866;SDS011;52862;52.504;13.480;2023-04-01T02:15:40;16.60;;;3.30;;
51866;SDS011;52862;52.504;13.480;2023-04-01T02:18:10;8.97;;;3.70;;
51866;SDS011;52862;52.504;13.480;2023-04-01T02:20:39;10.43;;;3.50;;
51866;SDS011;52862;52.504;13.480;2023-04-01T02:23:07;11.17;;;3.53;;
51866;SDS011;52862;52.504;13.480;2023-04-01T02:25:36;8.70;;;2.80;;
51866;SDS011;52862;52.504;13.480;2023-04-01T02:28:05;9.03;;;3.30;;
51866;SDS011;52862;52.504;13.480;2023-04-01T02:30:34;10.23;;;3.43;;
51866;SDS011;52862;52.504;13.480;2023-04-01T02:33:02;11.40;;;2.80;;
51866;SDS011;52862;52.504;13.480;2023-04-01T02:35:29;9.17;;;2.87;;
51866;SDS011;52862;52.504;13.480;2023-04-01T02:37:58;12.50;;;3.57;;
51866;SDS011;52862;52.504;13.480;2023-04-01T02:40:27;13.33;;;3.40;;
51866;SDS011;52862;52.504;13.480;2023-04-01T02:42:54;13.27;;;2.90;;
51866;SDS011;52862;52.504;13.480;2023-04-01T02:45:20;11.20;;;3.57;;
51866;SDS011;52862;52.504;13.480;2023-04-01T02:47:47;9.30;;;2.87;;
51866;SDS011;52862;52.504;13.480;2023-04-01T02:50:14;7.97;;;2.87;;
51866;SDS011;52862;52.504;13.480;2023-04-01T02:52:41;8.03;;;3.67;;
51866;SDS011;52862;52.504;13.480;2023-04-01T02:55:08;11.20;;;3.70;;
51866;SDS011;52862;52.504;13.480;2023-04-01T02:57:35;12.13;;;3.60;;
51866;SDS011;52862;52.504;13.480;2023-04-01T03:00:02;23.57;;;4.40;;
51866;SDS011;52862;52.504;13.480;2023-04-01T03:02:32;9.83;;;3.30;;
51866;SDS011;52862;52.504;13.480;2023-04-01T03:05:02;15.50;;;4.10;;
51866;SDS011;52862;52.504;13.480;2023-04-01T03:07:29;10.83;;;3.23;;
51866;SDS011;52862;52.504;13.480;2023-04-01T03:09:55;8.97;;;3.87;;
51866;SDS011;52862;52.504;13.480;2023-04-01T03:12:22;12.37;;;4.20;;
51866;SDS011;52862;52.504;13.480;2023-04-01T03:14:49;13.50;;;4.30;;
51866;SDS011;52862;52.504;13.480;2023-04-01T03:17:16;14.33;;;4.27;;
51866;SDS011;52862;52.504;13.480;2023-04-01T03:19:43;8.30;;;3.77;;
51866;SDS011;52862;52.504;13.480;2023-04-01T03:22:09;11.83;;;4.17;;
51866;SDS011;52862;52.504;13.480;2023-04-01T03:24:37;15.60;;;3.50;;
51866;SDS011;52862;52.504;13.480;2023-04-01T03:27:03;6.77;;;3.57;;
51866;SDS011;52862;52.504;13.480;2023-04-01T03:29:30;10.97;;;3.90;;
51866;SDS011;52862;52.504;13.480;2023-04-01T03:31:57;11.87;;;3.33;;
51866;SDS011;52862;52.504;13.480;2023-04-01T03:34:24;10.50;;;4.13;;
51866;SDS011;52862;52.504;13.480;2023-04-01T03:36:51;10.43;;;3.53;;
51866;SDS011;52862;52.504;13.480;2023-04-01T03:39:17;15.23;;;3.60;;
51866;SDS011;52862;52.504;13.480;2023-04-01T03:41:45;11.57;;;3.70;;
51866;SDS011;52862;52.504;13.480;2023-04-01T03:44:12;10.90;;;3.80;;
51866;SDS011;52862;52.504;13.480;2023-04-01T03:46:38;9.20;;;3.87;;
51866;SDS011;52862;52.504;13.480;2023-04-01T03:49:06;10.97;;;4.07;;
51866;SDS011;52862;52.504;13.480;2023-04-01T03:51:36;10.87;;;4.10;;
51866;SDS011;52862;52.504;13.480;2023-04-01T03:54:03;18.77;;;3.77;;
51866;SDS011;52862;52.504;13.480;2023-04-01T03:56:30;12.80;;;3.53;;
51866;SDS011;52862;52.504;13.480;2023-04-01T03:58:57;13.20;;;3.87;;
51866;SDS011;52862;52.504;13.480;2023-04-01T04:01:24;16.93;;;3.53;;
51866;SDS011;52862;52.504;13.480;2023-04-01T04:03:50;10.77;;;4.00;;
51866;SDS011;52862;52.504;13.480;2023-04-01T04:06:19;11.27;;;4.13;;
51866;SDS011;52862;52.504;13.480;2023-04-01T04:08:46;12.50;;;4.17;;
51866;SDS011;52862;52.504;13.480;2023-04-01T04:11:12;13.17;;;3.77;;
51866;SDS011;52862;52.504;13.480;2023-04-01T04:13:39;22.57;;;5.57;;
51866;SDS011;52862;52.504;13.480;2023-04-01T04:16:06;11.77;;;4.80;;
51866;SDS011;52862;52.504;13.480;2023-04-01T04:18:35;13.20;;;4.87;;
51866;SDS011;52862;52.504;13.480;2023-04-01T04:21:02;12.73;;;4.43;;
51866;SDS011;52862;52.504;13.480;2023-04-01T04:23:30;9.57;;;3.57;;
51866;SDS011;52862;52.504;13.480;2023-04-01T04:25:59;13.77;;;4.30;;
51866;SDS011;52862;52.504;13.480;2023-04-01T04:28:27;10.70;;;3.80;;
51866;SDS011;52862;52.504;13.480;2023-04-01T04:30:54;22.43;;;4.93;;
51866;SDS011;52862;52.504;13.480;2023-04-01T04:33:21;16.27;;;4.47;;
51866;SDS011;52862;52.504;13.480;2023-04-01T04:35:49;14.53;;;3.93;;
51866;SDS011;52862;52.504;13.480;2023-04-01T04:38:16;16.40;;;4.17;;
51866;SDS011;52862;52.504;13.480;2023-04-01T04:40:44;9.53;;;4.20;;
51866;SDS011;52862;52.504;13.480;2023-04-01T04:43:11;11.17;;;4.43;;
51866;SDS011;52862;52.504;13.480;2023-04-01T04:45:39;16.70;;;4.43;;
51866;SDS011;52862;52.504;13.480;2023-04-01T04:48:06;14.97;;;5.13;;
51866;SDS011;52862;52.504;13.480;2023-04-01T04:50:34;14.93;;;4.43;;
51866;SDS011;52862;52.504;13.480;2023-04-01T04:53:04;16.30;;;4.13;;
51866;SDS011;52862;52.504;13.480;2023-04-01T04:55:34;19.43;;;4.47;;
51866;SDS011;52862;52.504;13.480;2023-04-01T04:58:02;10.63;;;4.50;;
51866;SDS011;52862;52.504;13.480;2023-04-01T05:00:31;17.67;;;4.43;;
51866;SDS011;52862;52.504;13.480;2023-04-01T05:02:58;13.50;;;4.13;;
51866;SDS011;52862;52.504;13.480;2023-04-01T05:05:25;20.63;;;5.20;;
51866;SDS011;52862;52.504;13.480;2023-04-01T05:07:52;14.77;;;4.17;;
51866;SDS011;52862;52.504;13.480;2023-04-01T05:10:18;10.30;;;4.90;;
51866;SDS011;52862;52.504;13.480;2023-04-01T05:12:46;11.83;;;5.03;;
51866;SDS011;52862;52.504;13.480;2023-04-01T05:15:13;16.60;;;5.30;;
51866;SDS011;52862;52.504;13.480;2023-04-01T05:17:40;12.37;;;5.23;;
51866;SDS011;52862;52.504;13.480;2023-04-01T05:20:07;14.93;;;5.57;;
51866;SDS011;52862;52.504;13.480;2023-04-01T05:22:34;9.07;;;4.13;;
51866;SDS011;52862;52.504;13.480;2023-04-01T05:25:01;20.90;;;5.13;;
51866;SDS011;52862;52.504;13.480;2023-04-01T05:27:27;12.20;;;4.57;;
51866;SDS011;52862;52.504;13.480;2023-04-01T05:29:54;27.57;;;4.87;;
51866;SDS011;52862;52.504;13.480;2023-04-01T05:32:22;17.00;;;4.27;;
51866;SDS011;52862;52.504;13.480;2023-04-01T05:34:49;17.57;;;4.43;;
51866;SDS011;52862;52.504;13.480;2023-04-01T05:37:16;23.97;;;4.67;;
51866;SDS011;52862;52.504;13.480;2023-04-01T05:39:43;16.00;;;4.73;;
51866;SDS011;52862;52.504;13.480;2023-04-01T05:42:12;18.17;;;6.43;;
51866;SDS011;52862;52.504;13.480;2023-04-01T05:44:49;14.33;;;5.33;;
51866;SDS011;52862;52.504;13.480;2023-04-01T05:47:24;19.03;;;5.17;;
51866;SDS011;52862;52.504;13.480;2023-04-01T05:49:52;11.57;;;4.93;;
51866;SDS011;52862;52.504;13.480;2023-04-01T05:52:24;20.30;;;5.27;;
51866;SDS011;52862;52.504;13.480;2023-04-01T05:55:13;15.97;;;4.53;;
51866;SDS011;52862;52.504;13.480;2023-04-01T05:57:44;17.23;;;5.10;;
51866;SDS011;52862;52.504;13.480;2023-04-01T06:00:12;30.27;;;5.67;;
51866;SDS011;52862;52.504;13.480;2023-04-01T06:02:55;29.50;;;6.30;;
51866;SDS011;52862;52.504;13.480;2023-04-01T06:06:11;16.27;;;6.03;;
51866;SDS011;52862;52.504;13.480;2023-04-01T06:08:41;17.73;;;6.70;;
51866;SDS011;52862;52.504;13.480;2023-04-01T06:11:13;19.30;;;6.00;;
51866;SDS011;52862;52.504;13.480;2023-04-01T06:13:52;19.23;;;6.03;;
51866;SDS011;52862;52.504;13.480;2023-04-01T06:16:33;18.30;;;5.80;;
51866;SDS011;52862;52.504;13.480;2023-04-01T06:19:14;24.43;;;5.53;;
51866;SDS011;52862;52.504;13.480;2023-04-01T06:22:09;22.63;;;6.27;;
51866;SDS011;52862;52.504;13.480;2023-04-01T06:25:01;25.17;;;6.07;;
51866;SDS011;52862;52.504;13.480;2023-04-01T06:27:42;19.23;;;6.67;;
51866;SDS011;52862;52.504;13.480;2023-04-01T06:30:24;13.83;;;6.50;;
51866;SDS011;52862;52.504;13.480;2023-04-01T06:36:00;26.73;;;7.17;;
51866;SDS011;52862;52.504;13.480;2023-04-01T06:41:44;21.40;;;7.57;;
51866;SDS011;52862;52.504;13.480;2023-04-01T06:44:48;21.03;;;7.83;;
51866;SDS011;52862;52.504;13.480;2023-04-01T06:47:27;17.07;;;7.37;;
51866;SDS011;52862;52.504;13.480;2023-04-01T06:50:03;19.43;;;6.07;;
51866;SDS011;52862;52.504;13.480;2023-04-01T06:52:39;16.37;;;5.67;;
51866;SDS011;52862;52.504;13.480;2023-04-01T06:55:18;11.90;;;4.93;;
51866;SDS011;52862;52.504;13.480;2023-04-01T06:57:52;16.43;;;5.47;;
51866;SDS011;52862;52.504;13.480;2023-04-01T07:00:22;13.80;;;5.63;;
51866;SDS011;52862;52.504;13.480;2023-04-01T07:02:56;12.37;;;5.17;;
51866;SDS011;52862;52.504;13.480;2023-04-01T07:05:32;21.73;;;5.70;;
51866;SDS011;52862;52.504;13.480;2023-04-01T07:08:02;18.37;;;5.43;;
51866;SDS011;52862;52.504;13.480;2023-04-01T07:10:33;9.00;;;4.70;;
51866;SDS011;52862;52.504;13.480;2023-04-01T07:13:10;14.27;;;4.77;;
51866;SDS011;52862;52.504;13.480;2023-04-01T07:15:43;13.50;;;5.37;;
51866;SDS011;52862;52.504;13.480;2023-04-01T07:18:15;18.07;;;6.27;;
51866;SDS011;52862;52.504;13.480;2023-04-01T07:20:45;15.47;;;5.30;;
51866;SDS011;52862;52.504;13.480;2023-04-01T07:23:15;27.27;;;6.30;;
51866;SDS011;52862;52.504;13.480;2023-04-01T07:25:51;19.10;;;6.03;;
51866;SDS011;52862;52.504;13.480;2023-04-01T07:28:21;19.20;;;6.57;;
51866;SDS011;52862;52.504;13.480;2023-04-01T07:30:50;23.33;;;6.93;;
51866;SDS011;52862;52.504;13.480;2023-04-01T07:33:26;15.27;;;6.13;;
51866;SDS011;52862;52.504;13.480;2023-04-01T07:36:03;13.83;;;6.00;;
51866;SDS011;52862;52.504;13.480;2023-04-01T07:38:37;21.57;;;6.00;;
51866;SDS011;52862;52.504;13.480;2023-04-01T07:41:12;15.03;;;6.03;;
51866;SDS011;52862;52.504;13.480;2023-04-01T07:43:54;13.17;;;5.50;;
51866;SDS011;52862;52.504;13.480;2023-04-01T07:46:35;16.70;;;6.00;;
51866;SDS011;52862;52.504;13.480;2023-04-01T07:49:15;18.67;;;5.87;;
51866;SDS011;52862;52.504;13.480;2023-04-01T07:51:50;14.73;;;5.70;;
51866;SDS011;52862;52.504;13.480;2023-04-01T07:54:28;22.90;;;5.80;;
51866;SDS011;52862;52.504;13.480;2023-04-01T07:57:02;15.33;;;5.80;;
51866;SDS011;52862;52.504;13.480;2023-04-01T07:59:35;14.13;;;5.90;;
51866;SDS011;52862;52.504;13.480;2023-04-01T08:02:14;14.90;;;5.40;;
51866;SDS011;52862;52.504;13.480;2023-04-01T08:04:53;17.57;;;6.10;;
51866;SDS011;52862;52.504;13.480;2023-04-01T08:07:28;14.83;;;5.70;;
51866;SDS011;52862;52.504;13.480;2023-04-01T08:10:01;15.53;;;5.60;;
51866;SDS011;52862;52.504;13.480;2023-04-01T08:12:36;19.50;;;7.03;;
51866;SDS011;52862;52.504;13.480;2023-04-01T08:15:15;11.07;;;5.13;;
51866;SDS011;52862;52.504;13.480;2023-04-01T08:17:51;13.53;;;5.40;;
51866;SDS011;52862;52.504;13.480;2023-04-01T08:20:26;7.57;;;4.47;;
51866;SDS011;52862;52.504;13.480;2023-04-01T08:22:58;10.50;;;5.80;;
51866;SDS011;52862;52.504;13.480;2023-04-01T08:25:30;11.67;;;6.17;;
51866;SDS011;52862;52.504;13.480;2023-04-01T08:28:01;14.50;;;6.90;;
51866;SDS011;52862;52.504;13.480;2023-04-01T08:30:37;17.57;;;8.63;;
51866;SDS011;52862;52.504;13.480;2023-04-01T08:33:09;18.40;;;8.50;;
51866;SDS011;52862;52.504;13.480;2023-04-01T08:35:45;22.03;;;10.10;;
51866;SDS011;52862;52.504;13.480;2023-04-01T08:38:15;18.70;;;10.10;;
51866;SDS011;52862;52.504;13.480;2023-04-01T08:47:06;20.67;;;10.40;;
51866;SDS011;52862;52.504;13.480;2023-04-01T08:52:49;22.83;;;11.60;;
51866;SDS011;52862;52.504;13.480;2023-04-01T08:58:18;21.63;;;11.63;;
51866;SDS011;52862;52.504;13.480;2023-04-01T09:00:57;20.33;;;9.93;;
51866;SDS011;52862;52.504;13.480;2023-04-01T09:03:38;23.90;;;12.27;;
51866;SDS011;52862;52.504;13.480;2023-04-01T09:06:22;23.67;;;12.17;;
51866;SDS011;52862;52.504;13.480;2023-04-01T09:09:02;21.53;;;12.30;;
51866;SDS011;52862;52.504;13.480;2023-04-01T09:17:46;20.00;;;10.57;;
51866;SDS011;52862;52.504;13.480;2023-04-01T09:20:44;21.13;;;11.17;;
51866;SDS011;52862;52.504;13.480;2023-04-01T09:23:26;21.93;;;12.30;;
51866;SDS011;52862;52.504;13.480;2023-04-01T09:26:08;19.00;;;11.17;;
51866;SDS011;52862;52.504;13.480;2023-04-01T09:28:53;18.57;;;10.53;;
51866;SDS011;52862;52.504;13.480;2023-04-01T09:31:46;17.87;;;10.97;;
51866;SDS011;52862;52.504;13.480;2023-04-01T09:34:38;23.83;;;10.67;;
51866;SDS011;52862;52.504;13.480;2023-04-01T09:37:20;20.07;;;11.13;;
51866;SDS011;52862;52.504;13.480;2023-04-01T09:40:12;15.87;;;10.57;;
51866;SDS011;52862;52.504;13.480;2023-04-01T09:42:50;13.63;;;9.70;;
51866;SDS011;52862;52.504;13.480;2023-04-01T09:45:36;18.73;;;9.87;;
51866;SDS011;52862;52.504;13.480;2023-04-01T09:48:17;15.43;;;10.00;;
51866;SDS011;52862;52.504;13.480;2023-04-01T09:51:00;16.03;;;9.67;;
51866;SDS011;52862;52.504;13.480;2023-04-01T09:53:36;12.47;;;8.33;;
51866;SDS011;52862;52.504;13.480;2023-04-01T10:05:43;16.77;;;10.77;;
51866;SDS011;52862;52.504;13.480;2023-04-01T10:08:42;15.20;;;10.30;;
51866;SDS011;52862;52.504;13.480;2023-04-01T10:21:05;15.53;;;11.33;;
51866;SDS011;52862;52.504;13.480;2023-04-01T10:26:55;15.00;;;10.00;;
51866;SDS011;52862;52.504;13.480;2023-04-01T10:30:02;17.30;;;10.17;;
51866;SDS011;52862;52.504;13.480;2023-04-01T10:39:03;13.03;;;9.47;;
51866;SDS011;52862;52.504;13.480;2023-04-01T10:42:05;13.43;;;9.33;;
51866;SDS011;52862;52.504;13.480;2023-04-01T10:48:07;11.10;;;7.97;;
51866;SDS011;52862;52.504;13.480;2023-04-01T10:53:40;12.83;;;6.57;;
51866;SDS011;52862;52.504;13.480;2023-04-01T11:08:50;7.43;;;5.23;;
51866;SDS011;52862;52.504;13.480;2023-04-01T11:21:16;9.53;;;5.57;;
51866;SDS011;52862;52.504;13.480;2023-04-01T11:24:05;6.97;;;4.97;;
51866;SDS011;52862;52.504;13.480;2023-04-01T11:26:51;8.77;;;4.70;;
51866;SDS011;52862;52.504;13.480;2023-04-01T11:29:33;8.67;;;5.10;;
51866;SDS011;52862;52.504;13.480;2023-04-01T11:32:29;6.77;;;4.80;;
51866;SDS011;52862;52.504;13.480;2023-04-01T11:35:25;9.47;;;4.70;;
51866;SDS011;52862;52.504;13.480;2023-04-01T11:38:19;6.67;;;4.07;;
51866;SDS011;52862;52.504;13.480;2023-04-01T11:40:58;6.93;;;4.07;;
51866;SDS011;52862;52.504;13.480;2023-04-01T11:43:34;7.20;;;4.03;;
51866;SDS011;52862;52.504;13.480;2023-04-01T11:46:10;6.93;;;4.27;;
51866;SDS011;52862;52.504;13.480;2023-04-01T11:48:43;5.33;;;3.90;;
51866;SDS011;52862;52.504;13.480;2023-04-01T11:51:22;6.20;;;3.90;;
51866;SDS011;52862;52.504;13.480;2023-04-01T11:54:10;8.17;;;4.70;;
51866;SDS011;52862;52.504;13.480;2023-04-01T11:56:51;6.47;;;3.53;;
51866;SDS011;52862;52.504;13.480;2023-04-01T12:02:29;8.70;;;4.83;;
51866;SDS011;52862;52.504;13.480;2023-04-01T12:05:14;4.97;;;3.77;;
51866;SDS011;52862;52.504;13.480;2023-04-01T12:08:04;8.53;;;4.80;;
51866;SDS011;52862;52.504;13.480;2023-04-01T12:10:38;10.17;;;4.90;;
51866;SDS011;52862;52.504;13.480;2023-04-01T12:13:12;10.13;;;5.67;;
51866;SDS011;52862;52.504;13.480;2023-04-01T12:15:54;9.80;;;5.93;;
51866;SDS011;52862;52.504;13.480;2023-04-01T12:18:33;6.53;;;4.57;;
51866;SDS011;52862;52.504;13.480;2023-04-01T12:21:07;10.00;;;5.37;;
51866;SDS011;52862;52.504;13.480;2023-04-01T12:23:51;8.90;;;5.57;;
51866;SDS011;52862;52.504;13.480;2023-04-01T12:26:44;10.23;;;5.90;;
51866;SDS011;52862;52.504;13.480;2023-04-01T12:29:34;11.67;;;6.27;;
51866;SDS011;52862;52.504;13.480;2023-04-01T12:32:10;10.77;;;5.90;;
51866;SDS011;52862;52.504;13.480;2023-04-01T12:34:48;10.83;;;6.10;;
51866;SDS011;52862;52.504;13.480;2023-04-01T12:37:29;10.47;;;6.10;;
51866;SDS011;52862;52.504;13.480;2023-04-01T12:40:18;11.10;;;6.50;;
51866;SDS011;52862;52.504;13.480;2023-04-01T12:42:57;9.63;;;5.97;;
51866;SDS011;52862;52.504;13.480;2023-04-01T12:45:34;10.27;;;5.80;;
51866;SDS011;52862;52.504;13.480;2023-04-01T12:54:22;9.03;;;4.30;;
51866;SDS011;52862;52.504;13.480;2023-04-01T12:57:32;8.77;;;4.47;;
51866;SDS011;52862;52.504;13.480;2023-04-01T13:00:25;12.47;;;5.13;;
51866;SDS011;52862;52.504;13.480;2023-04-01T13:03:10;8.60;;;5.57;;
51866;SDS011;52862;52.504;13.480;2023-04-01T13:06:00;11.57;;;6.83;;
51866;SDS011;52862;52.504;13.480;2023-04-01T13:09:15;11.87;;;7.67;;
51866;SDS011;52862;52.504;13.480;2023-04-01T13:11:56;11.40;;;7.73;;
51866;SDS011;52862;52.504;13.480;2023-04-01T13:14:55;10.33;;;7.17;;
51866;SDS011;52862;52.504;13.480;2023-04-01T13:17:33;10.50;;;7.97;;
51866;SDS011;52862;52.504;13.480;2023-04-01T13:20:06;15.60;;;9.20;;
51866;SDS011;52862;52.504;13.480;2023-04-01T13:22:46;11.97;;;7.43;;
51866;SDS011;52862;52.504;13.480;2023-04-01T13:25:34;9.97;;;6.80;;
51866;SDS011;52862;52.504;13.480;2023-04-01T13:28:06;12.63;;;7.03;;
51866;SDS011;52862;52.504;13.480;2023-04-01T13:30:39;10.33;;;6.57;;
51866;SDS011;52862;52.504;13.480;2023-04-01T13:33:15;8.23;;;5.90;;
51866;SDS011;52862;52.504;13.480;2023-04-01T13:35:54;13.03;;;7.17;;
51866;SDS011;52862;52.504;13.480;2023-04-01T13:41:32;9.00;;;5.60;;
51866;SDS011;52862;52.504;13.480;2023-04-01T13:44:14;10.73;;;6.53;;
51866;SDS011;52862;52.504;13.480;2023-04-01T13:46:53;10.87;;;6.73;;
51866;SDS011;52862;52.504;13.480;2023-04-01T13:52:49;12.93;;;7.67;;
51866;SDS011;52862;52.504;13.480;2023-04-01T13:55:30;13.47;;;8.63;;
51866;SDS011;52862;52.504;13.480;2023-04-01T13:58:31;16.13;;;8.47;;
51866;SDS011;52862;52.504;13.480;2023-04-01T14:01:23;12.67;;;7.13;;
51866;SDS011;52862;52.504;13.480;2023-04-01T14:04:20;11.83;;;6.27;;
51866;SDS011;52862;52.504;13.480;2023-04-01T14:07:04;14.57;;;7.00;;
51866;SDS011;52862;52.504;13.480;2023-04-01T14:12:31;12.50;;;7.30;;
51866;SDS011;52862;52.504;13.480;2023-04-01T14:18:08;13.33;;;8.30;;
51866;SDS011;52862;52.504;13.480;2023-04-01T14:20:50;12.47;;;9.07;;
51866;SDS011;52862;52.504;13.480;2023-04-01T14:23:34;13.47;;;9.07;;
51866;SDS011;52862;52.504;13.480;2023-04-01T14:26:22;13.80;;;9.57;;
51866;SDS011;52862;52.504;13.480;2023-04-01T14:29:02;18.40;;;9.53;;
51866;SDS011;52862;52.504;13.480;2023-04-01T14:31:47;18.07;;;9.33;;
51866;SDS011;52862;52.504;13.480;2023-04-01T14:34:27;13.83;;;9.10;;
51866;SDS011;52862;52.504;13.480;2023-04-01T14:37:25;13.37;;;8.47;;
51866;SDS011;52862;52.504;13.480;2023-04-01T14:40:16;13.23;;;8.87;;
51866;SDS011;52862;52.504;13.480;2023-04-01T14:48:59;11.63;;;7.77;;
51866;SDS011;52862;52.504;13.480;2023-04-01T14:51:29;12.63;;;8.70;;
51866;SDS011;52862;52.504;13.480;2023-04-01T14:54:00;12.37;;;7.80;;
51866;SDS011;52862;52.504;13.480;2023-04-01T14:56:36;12.53;;;8.80;;
51866;SDS011;52862;52.504;13.480;2023-04-01T14:59:13;14.37;;;8.83;;
51866;SDS011;52862;52.504;13.480;2023-04-01T15:01:45;10.23;;;6.60;;
51866;SDS011;52862;52.504;13.480;2023-04-01T15:07:30;11.33;;;6.27;;
51866;SDS011;52862;52.504;13.480;2023-04-01T15:10:24;8.97;;;5.63;;
51866;SDS011;52862;52.504;13.480;2023-04-01T15:13:04;8.83;;;6.10;;
51866;SDS011;52862;52.504;13.480;2023-04-01T15:15:39;9.87;;;6.27;;
51866;SDS011;52862;52.504;13.480;2023-04-01T15:18:20;8.43;;;5.77;;
51866;SDS011;52862;52.504;13.480;2023-04-01T15:21:04;13.03;;;7.67;;
51866;SDS011;52862;52.504;13.480;2023-04-01T15:23:46;12.40;;;7.53;;
51866;SDS011;52862;52.504;13.480;2023-04-01T15:26:28;15.47;;;8.77;;
51866;SDS011;52862;52.504;13.480;2023-04-01T15:29:22;16.17;;;9.90;;
51866;SDS011;52862;52.504;13.480;2023-04-01T15:32:07;14.30;;;8.53;;
51866;SDS011;52862;52.504;13.480;2023-04-01T15:34:49;13.67;;;8.13;;
51866;SDS011;52862;52.504;13.480;2023-04-01T15:37:26;12.87;;;8.03;;
51866;SDS011;52862;52.504;13.480;2023-04-01T15:40:05;10.57;;;7.73;;
51866;SDS011;52862;52.504;13.480;2023-04-01T15:42:44;11.03;;;7.03;;
51866;SDS011;52862;52.504;13.480;2023-04-01T15:45:31;10.97;;;6.90;;
51866;SDS011;52862;52.504;13.480;2023-04-01T15:48:10;10.03;;;6.57;;
51866;SDS011;52862;52.504;13.480;2023-04-01T15:50:59;9.43;;;6.43;;
51866;SDS011;52862;52.504;13.480;2023-04-01T15:53:49;11.10;;;6.67;;
51866;SDS011;52862;52.504;13.480;2023-04-01T15:56:42;10.40;;;6.17;;
51866;SDS011;52862;52.504;13.480;2023-04-01T15:59:21;10.50;;;6.27;;
51866;SDS011;52862;52.504;13.480;2023-04-01T16:01:59;8.87;;;6.17;;
51866;SDS011;52862;52.504;13.480;2023-04-01T16:04:46;10.67;;;6.97;;
51866;SDS011;52862;52.504;13.480;2023-04-01T16:10:24;16.80;;;8.20;;
51866;SDS011;52862;52.504;13.480;2023-04-01T16:13:10;15.67;;;8.50;;
51866;SDS011;52862;52.504;13.480;2023-04-01T16:15:50;15.37;;;9.30;;
51866;SDS011;52862;52.504;13.480;2023-04-01T16:18:26;16.17;;;8.87;;
51866;SDS011;52862;52.504;13.480;2023-04-01T16:21:02;12.77;;;7.80;;
51866;SDS011;52862;52.504;13.480;2023-04-01T16:23:35;19.33;;;9.30;;
51866;SDS011;52862;52.504;13.480;2023-04-01T16:26:09;14.13;;;7.57;;
51866;SDS011;52862;52.504;13.480;2023-04-01T16:28:48;16.47;;;7.63;;
51866;SDS011;52862;52.504;13.480;2023-04-01T16:31:25;12.97;;;8.07;;
51866;SDS011;52862;52.504;13.480;2023-04-01T16:33:59;17.10;;;8.90;;
51866;SDS011;52862;52.504;13.480;2023-04-01T16:36:30;17.77;;;7.83;;
51866;SDS011;52862;52.504;13.480;2023-04-01T16:39:08;13.73;;;7.97;;
51866;SDS011;52862;52.504;13.480;2023-04-01T16:41:47;13.73;;;8.07;;
51866;SDS011;52862;52.504;13.480;2023-04-01T16:44:19;16.53;;;8.80;;
51866;SDS011;52862;52.504;13.480;2023-04-01T16:46:49;12.23;;;7.97;;
51866;SDS011;52862;52.504;13.480;2023-04-01T16:49:24;15.87;;;9.17;;
51866;SDS011;52862;52.504;13.480;2023-04-01T16:51:57;12.77;;;8.03;;
51866;SDS011;52862;52.504;13.480;2023-04-01T16:54:39;16.07;;;7.70;;
51866;SDS011;52862;52.504;13.480;2023-04-01T16:57:14;12.50;;;7.20;;
51866;SDS011;52862;52.504;13.480;2023-04-01T16:59:56;15.37;;;7.00;;
51866;SDS011;52862;52.504;13.480;2023-04-01T17:02:28;10.97;;;6.53;;
51866;SDS011;52862;52.504;13.480;2023-04-01T17:05:00;11.40;;;6.73;;
51866;SDS011;52862;52.504;13.480;2023-04-01T17:07:33;10.87;;;7.03;;
51866;SDS011;52862;52.504;13.480;2023-04-01T17:10:25;11.63;;;6.73;;